Aérodrome :
LOGIN :

S'inscrire | Disclaimer

   EN    FR    IT 

 










Légende :    VFR   VFR Marginal   IFR   IFR Intensif   IFR Très Intensif
Visi : 
Plafond : 
>= 8 km
>= 3000ft
5 à 8 km
1000 à 3000 ft
1500m à 5 km
500 à 1000 ft
800 à 1500m
200 à 500 ft
< 800m
< 200 ft
Symboles :   Orages  Brouillard  Fortes neiges  Fortes précipitations  Vent > 20 kt
SIGMETs :   Divers  Orages  Givrage  Turbulence  Onde Orograph.  Cendres Volcan.







- Altitude de l'aérodrome : 187 ft


ETNW - Wunstorf AB

DERNIER METAR :
  • 181520Z 28016KT 9999 VCSH FEW020CB SCT028 BKN080 06/02 Q1015 BLU BLU TEMPO GRN

METARs EXPIRÉS :
  • 181420Z 28019KT 9999 VCSH FEW020CB SCT028 08/01 Q1014 BLU+BLU TEMPO GRN
  • 181320Z 27014KT 9999 FEW020CB SCT080 07/02 Q1014 RETS BLU+BLU TEMPO GRN
  • 181310Z 28016KT 9999 FEW020CB 07/03 Q1014 RETS BLU+BLU TEMPO GRN
  • 181249Z 29023G36KT 9999 VCTS VCSH FEW015 SCT020CB 05/02 Q1014 BLU+BLU TEMPO GRN
  • 181244Z 28024G36KT 5000 -SHRA FEW015 BKN020CB 06/02 Q1014 WHT BLU TEMPO GRN
  • 181220Z 26015KT 9999 FEW025 SCT070 08/02 Q1013 BLU+BLU TEMPO GRN

TAF TAF ETNW
Valide du 18 à 12h jusqu'au 19 à 12h UTC


181120Z 1812/1912 25015G30KT 9999 NSW SCT020 BKN040
TEMPO 1812/1817 28025G40KT 4000 SHRAGS BKN008 BKN015CB
BECMG 1816/1818 27010KT 9999 NSW SCT020
PROB30 1900/1907 27005KT 5000 BR FEW020 BY ETGL
Pas de NOTAMs connus pour ce terrain.



MET'MAP, la Météo Aéronautique d'un coup d'oeil ! - Copyright ORBIFLY Décembre 2007 - Disclaimer

ORBIFLY MET'MAP TEAM :

Programmation & Développement : Alexandra Zaïnal
Conception & Développement : Baudouin d'Aumeries
Co-Programmation & Développement : Marc-Olivier Méhu
Soutien technique & logistique : Manuel Goepfert

Contact : metmap@orbifly.com




SOURCES & CREDITS :

   NOAA